Java, South Dakota
Current Conditions -  °F | °C
As of 12:52 PM on Friday 28 Nov 2014 (Local Time) from KMBG Reporting Station
Clear Clear  
Wind Chill: 22°   Ceiling: Unl
Heat Index: 30°   Visibility: 10mi
Dew Point: 21°   Wind: 8mph
Humidity: 69%   Direction: 100°E
Pressure: 29.63"   Gusts: NA
Location:  45.5°N, 99.89°W
Report Text: KMBG 281852Z AUTO 10007KT 10SM CLR M01/M06 A2963 RMK AO2 SLP060 T10111061
Loading
Personal Weather Stations






























Interactive Weather Map New forecast layout! Learn more

10-Day Weather Forecast

Advertisements
Track Severe Weather on mobile